createdAt,value
2022-10-07T00:07:39.650Z,5.06
2022-10-07T00:22:40.260Z,4.52
2022-10-07T00:37:40.412Z,4.45
2022-10-07T00:52:40.484Z,4.33
2022-10-07T01:07:41.392Z,4.09
2022-10-07T01:22:42.721Z,3.79
2022-10-07T01:37:43.781Z,3.60
2022-10-07T01:52:44.509Z,3.75
2022-10-07T02:07:44.985Z,3.73
2022-10-07T02:22:46.170Z,3.93
2022-10-07T02:37:47.037Z,3.93
2022-10-07T02:52:47.992Z,3.70
2022-10-07T03:07:48.620Z,4.08
2022-10-07T03:22:49.236Z,4.23
2022-10-07T03:37:49.349Z,3.83
2022-10-07T03:52:49.430Z,3.76
2022-10-07T04:07:49.572Z,3.32
2022-10-07T04:22:49.679Z,2.90
2022-10-07T04:37:49.785Z,2.81
2022-10-07T04:52:49.909Z,2.66
2022-10-07T05:07:50.016Z,2.57
2022-10-07T05:22:50.204Z,2.39
2022-10-07T05:37:51.463Z,2.31
2022-10-07T05:52:51.384Z,2.43
2022-10-07T06:07:51.453Z,2.54
2022-10-07T06:22:51.591Z,3.90
2022-10-07T06:37:52.005Z,5.18
2022-10-07T06:52:52.466Z,6.21
2022-10-07T07:07:52.540Z,7.20
2022-10-07T07:22:52.626Z,8.01
2022-10-07T07:37:52.695Z,9.21
2022-10-07T07:52:57.172Z,10.25
2022-10-07T08:07:57.462Z,11.44
2022-10-07T08:22:59.067Z,12.97
2022-10-07T08:37:59.736Z,14.69
2022-10-07T08:52:59.846Z,16.30
2022-10-07T09:07:59.951Z,17.63
2022-10-07T09:22:59.931Z,18.69
2022-10-07T09:38:00.031Z,19.02
2022-10-07T09:53:00.628Z,19.19
2022-10-07T10:08:00.732Z,19.96
2022-10-07T10:23:00.826Z,20.73
2022-10-07T10:38:01.265Z,21.54
2022-10-07T10:53:01.681Z,21.22
2022-10-07T11:08:02.320Z,21.58
2022-10-07T11:23:02.924Z,21.62
2022-10-07T11:38:03.330Z,21.40
2022-10-07T11:53:03.772Z,21.31
2022-10-07T12:08:04.401Z,21.35
2022-10-07T12:23:04.964Z,21.58
2022-10-07T12:38:05.559Z,21.71
2022-10-07T12:53:05.720Z,21.62
2022-10-07T13:08:05.799Z,21.92
2022-10-07T13:23:05.921Z,22.05
2022-10-07T13:38:06.061Z,22.45
2022-10-07T13:53:06.181Z,22.55
2022-10-07T14:08:06.238Z,22.10
2022-10-07T14:23:06.394Z,21.90
2022-10-07T14:38:06.798Z,21.80
2022-10-07T14:53:06.779Z,21.71
2022-10-07T15:08:06.857Z,20.21
2022-10-07T15:23:07.425Z,19.14
2022-10-07T15:38:08.024Z,18.32
2022-10-07T15:53:08.596Z,17.36
2022-10-07T16:08:09.266Z,16.17
2022-10-07T16:23:09.309Z,14.86
2022-10-07T16:38:09.408Z,13.66
2022-10-07T16:53:09.969Z,12.57
2022-10-07T17:08:10.095Z,11.75
2022-10-07T17:23:10.201Z,10.82
2022-10-07T17:38:10.348Z,10.33
2022-10-07T17:53:10.487Z,9.74
2022-10-07T18:08:11.796Z,9.08
2022-10-07T18:23:11.927Z,8.62
2022-10-07T18:38:12.050Z,8.07
2022-10-07T18:53:12.134Z,7.74
2022-10-07T19:08:12.265Z,7.13
2022-10-07T19:23:12.371Z,6.80
2022-10-07T19:38:13.017Z,6.61
2022-10-07T19:53:13.114Z,6.30
2022-10-07T20:08:13.214Z,6.08
2022-10-07T20:23:13.329Z,6.03
2022-10-07T20:38:13.467Z,5.83
2022-10-07T20:53:13.523Z,5.82
2022-10-07T21:08:13.641Z,5.75
2022-10-07T21:23:14.254Z,5.40
2022-10-07T21:38:14.648Z,5.33
2022-10-07T21:53:14.543Z,5.21
2022-10-07T22:08:14.675Z,5.15
2022-10-07T22:23:14.761Z,4.89
2022-10-07T22:38:14.942Z,4.82
2022-10-07T22:53:15.047Z,4.80
2022-10-07T23:08:15.132Z,4.62
2022-10-07T23:23:15.719Z,4.44
2022-10-07T23:38:15.891Z,4.40
2022-10-07T23:53:16.013Z,4.34
